createdAt,value
2019-02-26T00:03:33.678Z,2.70
2019-02-26T00:08:38.497Z,3.30
2019-02-26T00:13:42.074Z,3.00
2019-02-26T00:18:45.721Z,3.40
2019-02-26T00:23:50.889Z,3.00
2019-02-26T00:28:54.904Z,3.33
2019-02-26T00:33:58.485Z,3.23
2019-02-26T00:39:03.458Z,3.40
2019-02-26T00:44:07.300Z,3.70
2019-02-26T00:49:10.880Z,4.43
2019-02-26T00:54:14.885Z,3.50
2019-02-26T00:59:18.812Z,3.67
2019-02-26T01:04:22.390Z,3.70
2019-02-26T01:09:27.352Z,4.30
2019-02-26T01:14:31.445Z,4.37
2019-02-26T01:19:36.938Z,4.00
2019-02-26T01:24:40.866Z,3.73
2019-02-26T01:29:47.341Z,5.30
2019-02-26T01:34:50.146Z,4.67
2019-02-26T01:39:53.928Z,4.37
2019-02-26T01:44:57.580Z,4.30
2019-02-26T01:50:01.459Z,4.47
2019-02-26T01:55:07.654Z,4.70
2019-02-26T02:00:18.297Z,4.10
2019-02-26T02:05:23.702Z,4.63
2019-02-26T02:10:27.236Z,4.77
2019-02-26T02:15:30.891Z,4.10
2019-02-26T02:20:34.466Z,3.90
2019-02-26T02:25:38.760Z,4.30
2019-02-26T02:30:43.269Z,4.73
2019-02-26T02:35:47.182Z,4.60
2019-02-26T02:40:52.538Z,4.37
2019-02-26T02:45:59.066Z,4.37
2019-02-26T02:51:03.185Z,4.50
2019-02-26T02:56:09.847Z,5.80
2019-02-26T03:01:13.847Z,6.37
2019-02-26T03:06:17.739Z,5.00
2019-02-26T03:11:21.308Z,5.00
2019-02-26T03:16:27.136Z,5.27
2019-02-26T03:21:30.736Z,5.70
2019-02-26T03:26:34.428Z,5.43
2019-02-26T03:31:40.584Z,6.10
2019-02-26T03:36:45.784Z,5.67
2019-02-26T03:41:50.920Z,5.77
2019-02-26T03:46:54.245Z,6.40
2019-02-26T03:52:00.143Z,5.57
2019-02-26T03:57:03.651Z,6.03
2019-02-26T04:02:09.491Z,7.20
2019-02-26T04:07:13.151Z,6.70
2019-02-26T04:12:18.446Z,6.30
2019-02-26T04:17:25.452Z,6.13
2019-02-26T04:22:30.419Z,6.03
2019-02-26T04:27:41.362Z,6.57
2019-02-26T04:32:51.239Z,6.50
2019-02-26T04:38:06.868Z,6.67
2019-02-26T04:43:16.218Z,6.60
2019-02-26T04:48:26.201Z,6.30
2019-02-26T04:53:29.341Z,8.03
2019-02-26T04:58:34.301Z,6.80
2019-02-26T05:03:39.050Z,6.97
2019-02-26T05:08:42.965Z,7.20
2019-02-26T05:13:46.986Z,7.53
2019-02-26T05:18:51.735Z,8.33
2019-02-26T05:23:57.626Z,8.58
2019-02-26T05:29:01.442Z,8.00
2019-02-26T05:34:05.131Z,8.63
2019-02-26T05:39:08.877Z,9.00
2019-02-26T05:44:12.538Z,8.80
2019-02-26T05:49:19.210Z,8.13
2019-02-26T05:54:24.351Z,9.20
2019-02-26T05:59:26.909Z,9.23
2019-02-26T06:04:32.013Z,9.67
2019-02-26T06:09:36.117Z,9.13
2019-02-26T06:14:40.011Z,9.83
2019-02-26T06:19:45.533Z,10.93
2019-02-26T06:24:49.135Z,10.43
2019-02-26T06:29:55.072Z,11.20
2019-02-26T06:34:58.102Z,11.17
2019-02-26T06:40:03.288Z,11.53
2019-02-26T06:45:10.959Z,10.93
2019-02-26T06:50:17.914Z,11.37
2019-02-26T06:55:20.470Z,13.03
2019-02-26T07:00:26.916Z,10.83
2019-02-26T07:05:29.735Z,11.60
2019-02-26T07:10:33.781Z,11.60
2019-02-26T07:15:37.863Z,11.10
2019-02-26T07:20:46.540Z,11.33
2019-02-26T07:25:47.158Z,10.87
2019-02-26T07:30:50.901Z,11.20
2019-02-26T07:35:56.960Z,10.40
2019-02-26T07:41:01.884Z,10.30
2019-02-26T07:46:05.170Z,8.47
2019-02-26T07:51:09.199Z,8.93
2019-02-26T07:56:12.850Z,8.73
2019-02-26T08:01:16.450Z,10.07
2019-02-26T08:06:20.068Z,10.20
2019-02-26T08:11:23.791Z,9.43
2019-02-26T08:16:27.679Z,9.73
2019-02-26T08:21:32.625Z,11.07
2019-02-26T08:26:38.107Z,10.10
2019-02-26T08:31:44.613Z,9.73
2019-02-26T08:36:47.229Z,9.37
2019-02-26T08:42:02.706Z,8.23
2019-02-26T08:47:11.166Z,7.97
2019-02-26T08:52:11.666Z,8.10
2019-02-26T08:57:15.722Z,8.40
2019-02-26T09:02:19.378Z,8.67
2019-02-26T09:07:23.712Z,8.00
2019-02-26T09:12:28.726Z,8.37
2019-02-26T09:17:33.056Z,8.20
2019-02-26T09:22:38.035Z,9.07
2019-02-26T09:27:43.059Z,8.20
2019-02-26T09:32:47.322Z,9.30
2019-02-26T09:37:53.363Z,9.77
2019-02-26T09:42:58.149Z,9.87
2019-02-26T09:48:01.409Z,10.07
2019-02-26T09:53:05.390Z,10.87
2019-02-26T09:58:08.982Z,10.13
2019-02-26T10:03:15.041Z,9.67
2019-02-26T10:08:19.984Z,9.20
2019-02-26T10:13:25.184Z,10.50
2019-02-26T10:18:30.954Z,10.80
2019-02-26T10:23:34.926Z,11.67
2019-02-26T10:28:40.332Z,11.60
2019-02-26T10:33:46.318Z,11.07
2019-02-26T10:38:50.942Z,12.50
2019-02-26T10:43:55.126Z,11.10
2019-02-26T10:48:59.054Z,11.20
2019-02-26T10:54:02.923Z,10.60
2019-02-26T10:59:09.245Z,10.40
2019-02-26T11:04:13.485Z,10.70
2019-02-26T11:09:19.319Z,11.43
2019-02-26T11:14:22.477Z,10.63
2019-02-26T11:19:27.340Z,11.77
2019-02-26T11:24:33.494Z,10.63
2019-02-26T11:29:38.779Z,11.80
2019-02-26T11:34:41.978Z,10.97
2019-02-26T11:39:45.578Z,11.90
2019-02-26T11:44:49.240Z,12.00
2019-02-26T11:49:53.265Z,11.83
2019-02-26T11:54:58.713Z,12.87
2019-02-26T12:00:04.400Z,13.13
2019-02-26T12:05:08.802Z,12.80
2019-02-26T12:10:14.787Z,13.00
2019-02-26T12:15:18.845Z,12.80
2019-02-26T12:20:24.199Z,13.47
2019-02-26T12:25:27.828Z,13.47
2019-02-26T12:30:32.388Z,12.03
2019-02-26T12:35:38.014Z,12.50
2019-02-26T12:40:46.329Z,13.80
2019-02-26T12:45:47.813Z,12.37
2019-02-26T12:50:52.126Z,11.97
2019-02-26T12:55:58.859Z,11.73
2019-02-26T13:01:01.961Z,12.60
2019-02-26T13:06:08.958Z,11.97
2019-02-26T13:11:12.253Z,12.07
2019-02-26T13:16:16.589Z,13.00
2019-02-26T13:21:20.183Z,13.97
2019-02-26T13:26:24.089Z,13.83
2019-02-26T13:31:28.022Z,13.30
2019-02-26T13:36:36.082Z,15.13
2019-02-26T13:41:38.996Z,13.83
2019-02-26T13:46:43.091Z,15.00
2019-02-26T13:51:46.871Z,14.27
2019-02-26T13:56:50.532Z,14.67
2019-02-26T14:01:54.468Z,15.03
2019-02-26T14:06:58.799Z,15.00
2019-02-26T14:12:02.569Z,14.43
2019-02-26T14:17:06.500Z,14.47
2019-02-26T14:22:10.095Z,15.43
2019-02-26T14:27:13.903Z,14.73
2019-02-26T14:32:17.489Z,14.83
2019-02-26T14:37:21.092Z,15.57
2019-02-26T14:42:24.699Z,15.53
2019-02-26T14:47:30.024Z,15.00
2019-02-26T14:52:33.608Z,15.57
2019-02-26T14:57:37.682Z,14.03
2019-02-26T15:02:41.417Z,13.83
2019-02-26T15:07:45.077Z,13.33
2019-02-26T15:12:48.838Z,12.50
2019-02-26T15:17:52.862Z,12.00
2019-02-26T15:22:56.509Z,12.47
2019-02-26T15:28:05.139Z,11.07
2019-02-26T15:33:11.013Z,11.50
2019-02-26T15:38:10.917Z,11.33
2019-02-26T15:43:14.581Z,11.83
2019-02-26T15:48:18.523Z,13.10
2019-02-26T15:53:23.858Z,12.63
2019-02-26T15:58:27.498Z,12.97
2019-02-26T16:03:31.094Z,11.43
2019-02-26T16:08:35.058Z,13.50
2019-02-26T16:13:38.649Z,13.20
2019-02-26T16:18:42.403Z,20.00
2019-02-26T16:23:45.981Z,24.20
2019-02-26T16:28:49.583Z,48.97
2019-02-26T16:33:53.321Z,37.70
2019-02-26T16:38:56.918Z,32.73
2019-02-26T16:44:00.507Z,27.73
2019-02-26T16:49:04.563Z,26.43
2019-02-26T16:54:08.156Z,15.90
2019-02-26T16:59:12.239Z,22.40
2019-02-26T17:04:15.838Z,31.40
2019-02-26T17:09:21.102Z,37.67
2019-02-26T17:14:25.181Z,35.87
2019-02-26T17:19:28.774Z,31.13
2019-02-26T17:24:32.842Z,20.20
2019-02-26T17:29:36.429Z,23.07
2019-02-26T17:34:40.418Z,17.33
2019-02-26T17:39:44.019Z,17.43
2019-02-26T17:44:47.682Z,17.50
2019-02-26T17:49:51.269Z,21.03
2019-02-26T17:54:54.874Z,20.80
2019-02-26T17:59:58.877Z,19.73
2019-02-26T18:05:02.500Z,19.47
2019-02-26T18:10:12.954Z,17.53
2019-02-26T18:15:18.472Z,21.63
2019-02-26T18:20:23.184Z,17.60
2019-02-26T18:25:26.916Z,17.77
2019-02-26T18:30:31.058Z,25.53
2019-02-26T18:35:34.649Z,18.10
2019-02-26T18:40:38.245Z,20.90
2019-02-26T18:45:42.201Z,26.30
2019-02-26T18:50:45.973Z,26.67
2019-02-26T18:55:49.947Z,23.80
2019-02-26T19:00:53.531Z,18.40
2019-02-26T19:05:57.126Z,20.07
2019-02-26T19:11:02.546Z,20.03
2019-02-26T19:16:06.095Z,18.13
2019-02-26T19:21:09.681Z,17.27
2019-02-26T19:26:14.324Z,17.17
2019-02-26T19:31:17.977Z,16.67
2019-02-26T19:36:21.710Z,17.07
2019-02-26T19:41:25.445Z,16.10
2019-02-26T19:46:29.110Z,17.20
2019-02-26T19:51:34.716Z,16.40
2019-02-26T19:56:38.464Z,15.57
2019-02-26T20:01:42.116Z,16.07
2019-02-26T20:06:46.096Z,14.53
2019-02-26T20:12:10.093Z,15.80
2019-02-26T20:17:14.941Z,19.80
2019-02-26T20:22:18.777Z,19.13
2019-02-26T20:27:22.454Z,16.43
2019-02-26T20:32:30.741Z,13.93
2019-02-26T20:37:31.341Z,15.17
2019-02-26T20:42:35.493Z,14.97
2019-02-26T20:47:40.014Z,14.67
2019-02-26T20:52:44.130Z,13.17
2019-02-26T20:57:47.862Z,15.57
2019-02-26T21:02:52.019Z,13.60
2019-02-26T21:07:57.965Z,12.17
2019-02-26T21:13:01.827Z,16.23
2019-02-26T21:18:06.098Z,15.03
2019-02-26T21:23:10.090Z,15.83
2019-02-26T21:28:14.020Z,13.40
2019-02-26T21:33:17.620Z,11.73
2019-02-26T21:38:21.667Z,12.13
2019-02-26T21:43:25.566Z,11.60
2019-02-26T21:48:29.158Z,11.77
2019-02-26T21:53:32.830Z,12.07
2019-02-26T21:58:36.747Z,12.77
2019-02-26T22:03:40.504Z,14.23
2019-02-26T22:08:44.498Z,15.43
2019-02-26T22:13:48.167Z,15.97
2019-02-26T22:18:51.823Z,17.77
2019-02-26T22:23:55.519Z,16.27
2019-02-26T22:28:59.590Z,17.00
2019-02-26T22:34:03.530Z,13.63
2019-02-26T22:39:08.175Z,13.47
2019-02-26T22:44:12.331Z,14.23
2019-02-26T22:49:17.776Z,8.10
2019-02-26T22:54:21.642Z,8.00
2019-02-26T22:59:25.533Z,8.90
2019-02-26T23:04:29.563Z,9.23
2019-02-26T23:09:33.902Z,11.10
2019-02-26T23:14:38.671Z,8.27
2019-02-26T23:19:43.062Z,12.63
2019-02-26T23:24:46.720Z,9.03
2019-02-26T23:29:50.450Z,8.47
2019-02-26T23:35:08.895Z,17.90
2019-02-26T23:40:13.842Z,17.77
2019-02-26T23:45:17.918Z,27.97
2019-02-26T23:50:21.915Z,9.43
2019-02-26T23:55:26.334Z,10.70
